Terminal Aerodrome Forecast
Issued by NWS

Home | Current Version | Previous Version | Text Only | Print | Product List | Glossary On
Versions: 1 2 3 4 5 6 7 8 9 10 11 12 13 14
000
FTUS44 KBMX 222340
TAFANB
TAF
KANB 222340Z 2300/2324 07003KT 6SM -RA VCTS SCT015 SCT025CB OVC040
     FM230500 VRB03KT 4SM -SHRA BKN012 OVC100
     FM231200 VRB03KT 4SM -SHRA SCT003 BKN008
     FM231600 VRB05KT 6SM -SHRA VCTS OVC015CB=

USA.gov is the U.S. government's official web portal to all federal, state and local government web resources and services.